createdAt,value
2023-05-14T00:00:19.227Z,4
2023-05-14T00:05:19.239Z,2
2023-05-14T00:10:19.260Z,2
2023-05-14T00:15:19.348Z,2
2023-05-14T00:20:19.297Z,2
2023-05-14T00:25:16.217Z,1
2023-05-14T00:30:16.185Z,2
2023-05-14T00:35:19.413Z,2
2023-05-14T00:40:19.349Z,2
2023-05-14T00:45:19.310Z,2
2023-05-14T00:50:19.511Z,1
2023-05-14T00:55:19.293Z,1
2023-05-14T01:00:19.338Z,2
2023-05-14T01:05:19.369Z,2
2023-05-14T01:10:19.261Z,2
2023-05-14T01:15:19.319Z,2
2023-05-14T01:20:16.261Z,2
2023-05-14T01:25:16.350Z,3
2023-05-14T01:30:19.360Z,4
2023-05-14T01:35:19.361Z,4
2023-05-14T01:40:19.344Z,4
2023-05-14T01:45:19.356Z,5
2023-05-14T01:50:19.372Z,4
2023-05-14T01:55:19.459Z,3
2023-05-14T02:00:19.392Z,4
2023-05-14T02:05:19.458Z,4
2023-05-14T02:10:19.414Z,3
2023-05-14T02:15:16.301Z,3
2023-05-14T02:20:19.426Z,4
2023-05-14T02:25:19.403Z,3
2023-05-14T02:30:19.728Z,3
2023-05-14T02:35:19.473Z,2
2023-05-14T02:40:19.439Z,2
2023-05-14T02:45:19.444Z,3
2023-05-14T02:50:19.402Z,2
2023-05-14T02:55:19.544Z,3
2023-05-14T03:00:19.429Z,4
2023-05-14T03:05:16.409Z,6
2023-05-14T03:10:16.447Z,5
2023-05-14T03:15:19.499Z,5
2023-05-14T03:20:19.493Z,7
2023-05-14T03:25:19.588Z,5
2023-05-14T03:30:19.646Z,6
2023-05-14T03:35:19.582Z,5
2023-05-14T03:40:19.445Z,5
2023-05-14T03:45:19.510Z,4
2023-05-14T03:50:19.593Z,5
2023-05-14T03:55:19.627Z,5
2023-05-14T04:00:18.848Z,5
2023-05-14T04:05:18.704Z,3
2023-05-14T04:10:18.892Z,5
2023-05-14T04:15:15.716Z,5
2023-05-14T04:20:18.733Z,4
2023-05-14T04:25:18.766Z,5
2023-05-14T04:30:18.782Z,4
2023-05-14T04:35:18.801Z,3
2023-05-14T04:40:18.871Z,3
2023-05-14T04:45:18.838Z,2
2023-05-14T04:50:18.706Z,2
2023-05-14T04:55:15.860Z,2
2023-05-14T05:00:18.931Z,3
2023-05-14T05:05:15.819Z,3
2023-05-14T05:10:18.939Z,3
2023-05-14T05:15:18.862Z,2
2023-05-14T05:20:18.851Z,2
2023-05-14T05:25:18.979Z,3
2023-05-14T05:30:18.924Z,4
2023-05-14T05:35:19.109Z,4
2023-05-14T05:40:18.846Z,4
2023-05-14T05:45:19.059Z,4
2023-05-14T05:50:19.992Z,4
2023-05-14T05:55:18.956Z,4
2023-05-14T06:00:15.907Z,2
2023-05-14T06:05:15.909Z,1
2023-05-14T06:10:19.002Z,1
2023-05-14T06:15:18.937Z,3
2023-05-14T06:20:18.955Z,3
2023-05-14T06:25:18.976Z,1
2023-05-14T06:30:19.042Z,0
2023-05-14T06:35:18.987Z,1
2023-05-14T06:40:18.939Z,2
2023-05-14T06:45:18.963Z,2
2023-05-14T06:50:19.004Z,2
2023-05-14T06:55:15.937Z,2
2023-05-14T07:00:16.091Z,1
2023-05-14T07:05:19.179Z,0
2023-05-14T07:10:18.978Z,0
2023-05-14T07:15:18.953Z,0
2023-05-14T07:20:19.047Z,0
2023-05-14T07:25:19.039Z,0
2023-05-14T07:30:18.988Z,0
2023-05-14T07:35:19.055Z,1
2023-05-14T07:40:19.128Z,2
2023-05-14T07:45:15.968Z,2
2023-05-14T07:50:15.924Z,0
2023-05-14T07:55:19.327Z,0
2023-05-14T08:00:19.062Z,0
2023-05-14T08:05:19.093Z,2
2023-05-14T08:10:19.027Z,2
2023-05-14T08:15:19.051Z,2
2023-05-14T08:20:19.130Z,1
2023-05-14T08:25:19.320Z,1
2023-05-14T08:30:19.248Z,1
2023-05-14T08:35:19.140Z,1
2023-05-14T08:40:16.040Z,1
2023-05-14T08:45:16.225Z,0
2023-05-14T08:50:21.109Z,0
2023-05-14T08:55:19.489Z,0
2023-05-14T09:00:19.210Z,0
2023-05-14T09:05:19.215Z,0
2023-05-14T09:10:19.163Z,0
2023-05-14T09:15:19.208Z,0
2023-05-14T09:20:19.184Z,0
2023-05-14T09:25:19.308Z,0
2023-05-14T09:30:19.285Z,0
2023-05-14T09:35:16.146Z,0
2023-05-14T09:40:16.312Z,0
2023-05-14T09:45:19.338Z,0
2023-05-14T09:50:19.305Z,0
2023-05-14T09:55:19.323Z,0
2023-05-14T10:00:19.490Z,0
2023-05-14T10:05:19.339Z,0
2023-05-14T10:10:19.347Z,0
2023-05-14T10:15:19.287Z,0
2023-05-14T10:20:19.429Z,0
2023-05-14T10:25:16.188Z,0
2023-05-14T10:30:16.130Z,1
2023-05-14T10:35:19.554Z,1
2023-05-14T10:40:19.639Z,1
2023-05-14T10:45:19.345Z,1
2023-05-14T10:50:19.374Z,1
2023-05-14T10:55:19.321Z,2
2023-05-14T11:00:19.389Z,6
2023-05-14T11:05:19.420Z,6
2023-05-14T11:10:19.362Z,7
2023-05-14T11:15:19.356Z,6
2023-05-14T11:20:16.242Z,7
2023-05-14T11:25:16.305Z,7
2023-05-14T11:30:19.591Z,7
2023-05-14T11:35:19.445Z,5
2023-05-14T11:40:19.501Z,5
2023-05-14T11:45:19.450Z,6
2023-05-14T11:50:19.551Z,7
2023-05-14T11:55:19.488Z,6
2023-05-14T12:00:19.412Z,5
2023-05-14T12:05:19.497Z,9
2023-05-14T12:10:19.503Z,8
2023-05-14T12:15:16.491Z,11
2023-05-14T12:20:16.441Z,6
2023-05-14T12:25:19.495Z,8
2023-05-14T12:30:21.371Z,7
2023-05-14T12:35:19.589Z,9
2023-05-14T12:40:19.466Z,9
2023-05-14T12:45:19.656Z,10
2023-05-14T12:50:19.507Z,12
2023-05-14T12:55:19.578Z,11
2023-05-14T13:00:19.680Z,12
2023-05-14T13:05:16.563Z,12
2023-05-14T13:10:16.421Z,12
2023-05-14T13:15:19.675Z,9
2023-05-14T13:20:19.611Z,11
2023-05-14T13:25:19.625Z,8
2023-05-14T13:30:19.662Z,6
2023-05-14T13:35:19.588Z,12
2023-05-14T13:40:19.695Z,7
2023-05-14T13:45:19.580Z,5
2023-05-14T13:50:19.668Z,8
2023-05-14T13:55:19.668Z,7
2023-05-14T14:00:16.570Z,6
2023-05-14T14:05:16.580Z,7
2023-05-14T14:10:19.702Z,6
2023-05-14T14:15:19.613Z,5
2023-05-14T14:20:19.600Z,5
2023-05-14T14:25:19.675Z,5
2023-05-14T14:30:19.798Z,6
2023-05-14T14:35:19.704Z,4
2023-05-14T14:40:19.756Z,8
2023-05-14T14:45:19.771Z,7
2023-05-14T14:50:19.751Z,3
2023-05-14T14:55:16.506Z,7
2023-05-14T15:00:19.851Z,9
2023-05-14T15:05:19.713Z,9
2023-05-14T15:10:19.694Z,7
2023-05-14T15:15:19.806Z,7
2023-05-14T15:20:19.748Z,10
2023-05-14T15:25:19.759Z,6
2023-05-14T15:30:19.815Z,8
2023-05-14T15:35:19.901Z,6
2023-05-14T15:40:19.777Z,5
2023-05-14T15:45:16.721Z,7
2023-05-14T15:50:16.646Z,9
2023-05-14T15:55:19.984Z,4
2023-05-14T16:00:19.866Z,4
2023-05-14T16:05:19.871Z,6
2023-05-14T16:10:19.878Z,4
2023-05-14T16:15:19.846Z,6
2023-05-14T16:20:19.832Z,4
2023-05-14T16:25:19.883Z,6
2023-05-14T16:30:19.829Z,9
2023-05-14T16:35:19.916Z,8
2023-05-14T16:40:16.668Z,5
2023-05-14T16:45:16.925Z,6
2023-05-14T16:50:19.872Z,7
2023-05-14T16:55:19.898Z,4
2023-05-14T17:00:19.967Z,8
2023-05-14T17:05:19.841Z,6
2023-05-14T17:10:19.815Z,9
2023-05-14T17:15:20.021Z,5
2023-05-14T17:20:19.902Z,10
2023-05-14T17:25:19.900Z,6
2023-05-14T17:30:19.917Z,8
2023-05-14T17:35:16.763Z,8
2023-05-14T17:40:16.893Z,5
2023-05-14T17:45:20.034Z,6
2023-05-14T17:50:19.961Z,8
2023-05-14T17:55:20.016Z,11
2023-05-14T18:00:19.993Z,13
2023-05-14T18:05:20.752Z,9
2023-05-14T18:10:19.964Z,6
2023-05-14T18:15:20.036Z,10
2023-05-14T18:20:19.988Z,8
2023-05-14T18:25:16.916Z,9
2023-05-14T18:30:16.909Z,12
2023-05-14T18:35:20.026Z,10
2023-05-14T18:40:20.103Z,12
2023-05-14T18:45:20.024Z,8
2023-05-14T18:50:20.070Z,8
2023-05-14T18:55:20.159Z,7
2023-05-14T19:00:20.017Z,6
2023-05-14T19:05:20.095Z,4
2023-05-14T19:10:19.964Z,6
2023-05-14T19:15:20.027Z,8
2023-05-14T19:20:16.979Z,7
2023-05-14T19:25:20.096Z,10
2023-05-14T19:30:20.194Z,5
2023-05-14T19:35:20.111Z,5
2023-05-14T19:40:20.163Z,8
2023-05-14T19:45:20.116Z,8
2023-05-14T19:50:20.112Z,7
2023-05-14T19:55:20.052Z,5
2023-05-14T20:00:20.062Z,6
2023-05-14T20:05:20.252Z,7
2023-05-14T20:10:17.048Z,6
2023-05-14T20:15:17.017Z,5
2023-05-14T20:20:20.163Z,7
2023-05-14T20:25:20.124Z,9
2023-05-14T20:30:20.148Z,7
2023-05-14T20:35:20.087Z,6
2023-05-14T20:40:20.242Z,9
2023-05-14T20:45:20.194Z,10
2023-05-14T20:50:20.147Z,9
2023-05-14T20:55:20.287Z,12
2023-05-14T21:00:20.211Z,6
2023-05-14T21:05:17.093Z,6
2023-05-14T21:10:17.040Z,8
2023-05-14T21:15:20.382Z,5
2023-05-14T21:20:20.241Z,7
2023-05-14T21:25:20.212Z,10
2023-05-14T21:30:20.104Z,11
2023-05-14T21:35:20.276Z,8
2023-05-14T21:40:20.276Z,8
2023-05-14T21:45:21.637Z,10
2023-05-14T21:50:20.406Z,8
2023-05-14T21:55:20.231Z,8
2023-05-14T22:00:17.195Z,9
2023-05-14T22:05:20.341Z,10
2023-05-14T22:10:20.263Z,5
2023-05-14T22:15:20.306Z,5
2023-05-14T22:20:20.258Z,7
2023-05-14T22:25:20.445Z,4
2023-05-14T22:30:20.368Z,6
2023-05-14T22:35:20.295Z,10
2023-05-14T22:40:20.302Z,9
2023-05-14T22:45:20.364Z,6
2023-05-14T22:50:17.243Z,6
2023-05-14T22:55:17.265Z,6
2023-05-14T23:00:20.502Z,6
2023-05-14T23:05:20.274Z,5
2023-05-14T23:10:20.396Z,6
2023-05-14T23:15:20.446Z,6
2023-05-14T23:20:20.408Z,5
2023-05-14T23:25:20.312Z,6
2023-05-14T23:30:20.722Z,6
2023-05-14T23:35:20.416Z,5
2023-05-14T23:40:20.364Z,6
2023-05-14T23:45:17.271Z,5
2023-05-14T23:50:17.267Z,4
2023-05-14T23:55:20.404Z,5
